Time;durP1;ratioP1;P1;durP2;ratioP2;P2;SDS_P1;SDS_P2;PMS_P1;PMS_P2;Temp;Humidity;BMP_temperature;BMP_pressure;BME280_temperature;BME280_humidity;BME280_pressure;Samples;Min_cycle;Max_cycle;Signal;HPM_P1;HPM_P2
2022/10/30 00:11:22;;;;;;;46.42;29.70;;;;;;;11.17;100.00;99554.20;4066397;85;20975;-85
2022/10/30 00:17:39;;;;;;;47.43;29.82;;;;;;;11.06;100.00;99564.18;4065728;85;21058;-85
2022/10/30 00:23:57;;;;;;;43.30;27.63;;;;;;;10.97;100.00;99563.62;4073319;84;21093;-85
2022/10/30 00:29:58;;;;;;;43.60;25.57;;;;;;;10.83;100.00;99565.54;4124194;84;21081;-85
2022/10/30 00:42:37;;;;;;;52.60;30.80;;;;;;;10.60;100.00;99562.53;4082596;85;21072;-85
2022/10/30 00:49:02;;;;;;;50.98;30.12;;;;;;;10.57;100.00;99565.99;4083339;84;21161;-85
2022/10/30 00:55:54;;;;;;;51.30;28.07;;;;;;;10.42;100.00;99585.43;4085471;84;21488;-85
2022/10/30 01:01:57;;;;;;;54.38;32.53;;;;;;;10.27;100.00;99586.86;4193909;81;21110;-84
2022/10/30 01:07:58;;;;;;;51.83;31.77;;;;;;;10.12;100.00;99570.70;4158830;83;21984;-85
2022/10/30 01:14:19;;;;;;;59.63;33.08;;;;;;;10.13;100.00;99550.39;4157657;83;21078;-85
2022/10/30 01:27:58;;;;;;;46.10;28.57;;;;;;;10.33;100.00;99547.11;4154377;83;21026;-85
2022/10/30 01:34:48;;;;;;;46.10;27.00;;;;;;;10.38;100.00;99559.14;4117194;83;21030;-85
2022/10/30 01:49:19;;;;;;;45.63;27.10;;;;;;;10.35;100.00;99530.53;4163931;84;20999;-85
2022/10/30 02:02:09;;;;;;;39.60;24.72;;;;;;;10.39;100.00;99531.41;3954379;88;21612;-85
2022/10/30 02:08:11;;;;;;;39.40;25.48;;;;;;;10.37;100.00;99527.44;3922012;89;21107;-88
2022/10/30 02:14:42;;;;;;;38.60;24.52;;;;;;;10.39;100.00;99538.83;3967165;88;21164;-85
2022/10/30 02:21:01;;;;;;;40.17;24.67;;;;;;;10.29;100.00;99535.31;3930096;89;22157;-85
2022/10/30 02:27:15;;;;;;;40.63;25.57;;;;;;;10.27;100.00;99523.36;4078076;85;21015;-85
2022/10/30 02:33:38;;;;;;;47.08;27.85;;;;;;;10.21;100.00;99524.77;4085934;85;21047;-85
2022/10/30 02:39:44;;;;;;;45.73;27.50;;;;;;;10.11;100.00;99540.97;4083176;87;21004;-85
2022/10/30 02:45:55;;;;;;;48.98;28.92;;;;;;;10.03;100.00;99549.58;4171671;83;21044;-85
2022/10/30 02:51:56;;;;;;;49.45;30.32;;;;;;;9.95;100.00;99547.02;4163605;83;21061;-85
2022/10/30 02:58:01;;;;;;;48.63;30.70;;;;;;;9.86;100.00;99548.61;4170994;83;21117;-85
2022/10/30 03:04:11;;;;;;;45.80;29.42;;;;;;;9.64;100.00;99551.20;4178459;83;21596;-86
2022/10/30 03:10:53;;;;;;;50.15;32.98;;;;;;;9.58;100.00;99554.79;4149766;84;21056;-85
2022/10/30 03:17:34;;;;;;;48.65;30.77;;;;;;;9.47;100.00;99554.52;4009086;88;21138;-85
2022/10/30 03:23:41;;;;;;;47.27;27.32;;;;;;;9.39;100.00;99532.29;3958007;88;21091;-85
2022/10/30 03:29:43;;;;;;;37.03;25.10;;;;;;;9.38;100.00;99519.75;4018894;87;21059;-85
2022/10/30 03:42:49;;;;;;;43.30;28.32;;;;;;;9.40;100.00;99533.86;4098246;83;21632;-85
2022/10/30 03:48:55;;;;;;;44.03;26.37;;;;;;;9.31;100.00;99514.70;4090445;84;21170;-86
2022/10/30 03:55:06;;;;;;;39.50;24.57;;;;;;;9.30;100.00;99522.69;4177820;83;21510;-85
2022/10/30 04:01:18;;;;;;;35.28;23.27;;;;;;;9.34;100.00;99512.06;4167877;83;21015;-85
2022/10/30 04:14:47;;;;;;;43.45;26.65;;;;;;;9.35;100.00;99525.12;4181918;84;21073;-85
2022/10/30 04:21:02;;;;;;;44.73;23.95;;;;;;;9.33;100.00;99515.15;4184147;83;21022;-84
2022/10/30 04:27:03;;;;;;;42.10;25.15;;;;;;;9.29;100.00;99516.42;4182211;83;21002;-85
2022/10/30 04:33:12;;;;;;;38.53;26.65;;;;;;;9.24;100.00;99524.08;4193919;84;20997;-85
2022/10/30 04:39:15;;;;;;;49.30;28.00;;;;;;;9.19;100.00;99526.50;4193691;83;21009;-85
2022/10/30 04:45:19;;;;;;;40.65;25.88;;;;;;;9.00;100.00;99514.14;4183281;83;21084;-84
2022/10/30 04:51:26;;;;;;;47.83;28.27;;;;;;;8.83;100.00;99525.38;4182490;83;21033;-84
2022/10/30 04:57:30;;;;;;;47.80;26.23;;;;;;;8.76;100.00;99524.40;4181054;83;21050;-85
2022/10/30 05:03:45;;;;;;;33.18;21.75;;;;;;;8.70;100.00;99518.42;4177806;83;21124;-84
2022/10/30 05:09:49;;;;;;;39.65;24.90;;;;;;;8.72;100.00;99522.94;4158489;84;21075;-85
2022/10/30 05:22:04;;;;;;;50.98;27.32;;;;;;;8.54;100.00;99529.06;4150404;84;21418;-85
2022/10/30 05:28:09;;;;;;;41.10;27.07;;;;;;;8.56;100.00;99534.41;4179545;83;21061;-85
2022/10/30 05:34:12;;;;;;;;;;;;;;;8.44;100.00;99536.40;4186028;83;21577;-85
2022/10/30 05:40:18;;;;;;;38.65;24.27;;;;;;;8.48;100.00;99541.37;4191626;83;20837;-85
2022/10/30 05:46:24;;;;;;;41.70;26.07;;;;;;;8.55;100.00;99534.17;4190657;83;21015;-85
2022/10/30 05:52:34;;;;;;;41.20;26.00;;;;;;;8.54;100.00;99531.79;4232005;82;22141;-85
2022/10/30 05:58:36;;;;;;;37.00;24.12;;;;;;;8.44;100.00;99526.26;4203109;82;21124;-85
2022/10/30 06:04:39;;;;;;;36.20;23.12;;;;;;;8.62;100.00;99527.55;4195504;82;20995;-85
2022/10/30 06:10:44;;;;;;;37.48;25.20;;;;;;;8.78;100.00;99548.86;4178974;83;21041;-84
2022/10/30 06:16:49;;;;;;;40.50;23.35;;;;;;;8.89;100.00;99547.77;4181349;83;21892;-85
2022/10/30 06:23:09;;;;;;;32.95;24.05;;;;;;;9.05;100.00;99545.27;4120639;83;21569;-85
2022/10/30 06:29:47;;;;;;;37.30;24.37;;;;;;;9.15;100.00;99543.39;4175018;83;21624;-85
2022/10/30 06:35:49;;;;;;;35.33;22.82;;;;;;;9.22;100.00;99542.19;4174151;83;21216;-87
2022/10/30 06:41:52;;;;;;;38.70;23.22;;;;;;;9.29;100.00;99553.30;4183840;83;21589;-85
2022/10/30 06:48:01;;;;;;;33.92;23.10;;;;;;;9.44;100.00;99544.30;4197737;83;21053;-84
2022/10/30 06:54:05;;;;;;;41.70;24.43;;;;;;;9.58;100.00;99545.79;4164281;83;21027;-85
2022/10/30 07:00:20;;;;;;;34.90;24.05;;;;;;;9.74;100.00;99546.56;4178496;82;21047;-85
2022/10/30 07:06:47;;;;;;;36.40;23.35;;;;;;;9.93;100.00;99552.86;4214262;82;21242;-85
2022/10/30 07:13:16;;;;;;;33.80;23.42;;;;;;;10.41;100.00;99559.23;4185233;82;21510;-85
2022/10/30 07:27:27;;;;;;;36.48;21.73;;;;;;;11.92;100.00;99545.45;4022692;88;21028;-85
2022/10/30 07:34:17;;;;;;;32.80;21.55;;;;;;;12.43;100.00;99549.27;3927954;90;21859;-85
2022/10/30 07:47:30;;;;;;;24.52;17.02;;;;;;;13.19;100.00;99556.61;3665397;97;21187;-85
2022/10/30 07:53:45;;;;;;;24.45;16.70;;;;;;;13.70;100.00;99555.47;3768727;87;21150;-85
2022/10/30 08:07:15;;;;;;;29.55;16.60;;;;;;;14.56;100.00;99563.09;4072462;86;21074;-83
2022/10/30 08:13:40;;;;;;;23.90;16.77;;;;;;;14.79;100.00;99560.81;4197530;83;20954;-85
2022/10/30 08:32:48;;;;;;;25.95;13.18;;;;;;;16.52;100.00;99541.06;4171414;83;21018;-85
2022/10/30 08:39:15;;;;;;;18.30;12.00;;;;;;;17.11;100.00;99550.25;4032878;86;21027;-85
2022/10/30 08:46:07;;;;;;;22.50;11.18;;;;;;;17.55;100.00;99546.80;4108781;85;21032;-85
2022/10/30 08:59:42;;;;;;;18.32;11.97;;;;;;;18.16;98.57;99520.89;4148353;83;21034;-84
2022/10/30 09:06:04;;;;;;;15.53;10.43;;;;;;;18.84;97.05;99517.50;4061212;86;21025;-85
2022/10/30 09:12:50;;;;;;;18.92;10.70;;;;;;;19.03;94.38;99516.84;4026729;86;21186;-85
2022/10/30 09:26:03;;;;;;;16.23;10.55;;;;;;;20.17;92.89;99499.43;4031447;85;20974;-85
2022/10/30 09:32:12;;;;;;;20.85;10.08;;;;;;;20.32;91.80;99492.20;4159955;83;21060;-86
2022/10/30 09:38:24;;;;;;;17.45;9.10;;;;;;;20.95;90.97;99490.23;4174737;83;21050;-85
2022/10/30 09:44:46;;;;;;;21.25;10.25;;;;;;;21.59;90.04;99486.11;4167957;83;21725;-86
2022/10/30 09:51:21;;;;;;;15.32;9.40;;;;;;;21.60;86.08;99484.88;4163462;83;21052;-86
2022/10/30 10:11:25;;;;;;;15.50;9.50;;;;;;;21.61;83.10;99478.08;4205273;82;21507;-86
2022/10/30 11:00:20;;;;;;;16.45;7.72;;;;;;;21.31;77.45;99458.95;4154293;84;20992;-86
2022/10/30 11:06:40;;;;;;;15.05;8.80;;;;;;;21.52;76.88;99454.84;4204542;82;20979;-85
2022/10/30 11:13:02;;;;;;;13.30;7.03;;;;;;;21.44;75.89;99454.84;4061214;85;21031;-85
2022/10/30 11:26:23;;;;;;;15.40;8.00;;;;;;;21.55;75.64;99446.41;4085508;84;21046;-86
2022/10/30 11:32:54;;;;;;;11.75;6.92;;;;;;;21.58;75.37;99442.74;4055890;85;21045;-86
2022/10/30 11:39:11;;;;;;;18.80;7.33;;;;;;;21.56;75.01;99441.00;4178834;84;21991;-86
2022/10/30 11:51:49;;;;;;;11.33;6.72;;;;;;;21.31;75.08;99456.79;4060491;85;21041;-86
2022/10/30 11:57:56;;;;;;;12.90;7.15;;;;;;;21.19;74.19;99461.05;4081572;85;21039;-85
2022/10/30 12:04:22;;;;;;;17.35;7.40;;;;;;;21.11;73.68;99458.88;4093231;84;21062;-86
2022/10/30 12:10:29;;;;;;;16.30;7.08;;;;;;;21.01;73.59;99456.52;4074362;85;21204;-86
2022/10/30 12:37:42;;;;;;;13.53;5.55;;;;;;;21.04;71.91;99434.78;4080874;85;21073;-89
2022/10/30 12:51:18;;;;;;;15.30;5.60;;;;;;;20.62;72.59;99425.21;4152333;83;21448;-85
2022/10/30 12:57:27;;;;;;;13.68;5.60;;;;;;;20.51;72.63;99412.94;4139413;83;21011;-86
2022/10/30 13:04:12;;;;;;;11.22;5.25;;;;;;;20.47;73.07;99416.39;4169726;83;21014;-86
2022/10/30 13:17:41;;;;;;;15.90;6.47;;;;;;;20.38;73.31;99411.23;4106281;84;21041;-85
2022/10/30 13:24:52;;;;;;;11.83;5.35;;;;;;;20.30;73.23;99416.80;4149636;84;21012;-86
2022/10/30 13:38:29;;;;;;;14.63;6.15;;;;;;;20.29;73.16;99395.16;4235293;82;21032;-84
2022/10/30 13:45:23;;;;;;;16.25;5.92;;;;;;;20.43;73.24;99387.10;4210967;82;21073;-85
2022/10/30 13:52:10;;;;;;;9.85;5.45;;;;;;;20.57;73.73;99383.40;4231167;82;21117;-85
2022/10/30 13:58:46;;;;;;;13.68;4.97;;;;;;;20.64;74.02;99386.00;4155022;84;21052;-85
2022/10/30 14:05:15;;;;;;;10.98;4.72;;;;;;;20.67;73.96;99381.59;4136679;84;21089;-84
2022/10/30 14:11:27;;;;;;;19.40;5.42;;;;;;;20.65;73.74;99391.76;4062213;85;21046;-85
2022/10/30 14:17:28;;;;;;;15.38;4.62;;;;;;;20.61;73.04;99390.28;4079641;85;20995;-85
2022/10/30 14:23:38;;;;;;;12.45;4.67;;;;;;;20.46;73.04;99382.86;4094088;84;21011;-86
2022/10/30 14:43:04;;;;;;;11.97;4.87;;;;;;;19.90;73.11;99390.98;4077770;85;21098;-85
2022/10/30 14:56:36;;;;;;;14.38;4.85;;;;;;;19.25;74.05;99379.29;4137013;85;21094;-86
2022/10/30 15:03:19;;;;;;;12.20;5.80;;;;;;;19.03;74.64;99378.11;4077995;85;21014;-86
2022/10/30 15:09:40;;;;;;;10.13;4.83;;;;;;;18.97;74.87;99373.63;4092790;82;21091;-85
2022/10/30 15:15:45;;;;;;;10.15;4.92;;;;;;;18.83;75.10;99364.16;4077649;85;22030;-85
2022/10/30 15:22:37;;;;;;;10.98;4.90;;;;;;;18.70;75.49;99372.28;4055111;85;21054;-85
2022/10/30 15:35:27;;;;;;;17.25;7.92;;;;;;;18.29;76.69;99373.05;3991923;87;21378;-85
2022/10/30 15:48:51;;;;;;;16.50;7.90;;;;;;;17.85;77.79;99379.39;3994767;87;21059;-85
2022/10/30 15:55:07;;;;;;;14.20;6.85;;;;;;;17.57;78.51;99378.33;4075710;85;20999;-85
2022/10/30 16:01:53;;;;;;;23.20;10.57;;;;;;;17.35;79.41;99372.80;3998638;86;21090;-85
2022/10/30 16:07:56;;;;;;;30.48;15.72;;;;;;;17.18;79.99;99373.94;4011990;86;21981;-86
2022/10/30 16:14:40;;;;;;;32.70;15.00;;;;;;;16.94;80.59;99371.40;4226359;81;21029;-85
2022/10/30 16:27:45;;;;;;;22.10;8.73;;;;;;;16.37;81.66;99375.72;4156169;84;21133;-86
2022/10/30 16:41:42;;;;;;;20.08;10.05;;;;;;;15.77;82.94;99376.63;4177515;85;20951;-85
2022/10/30 16:47:51;;;;;;;23.15;11.85;;;;;;;15.46;83.75;99377.70;4176814;82;21493;-85
2022/10/30 16:53:59;;;;;;;18.27;9.58;;;;;;;15.33;84.30;99374.36;4240862;82;21068;-86
2022/10/30 17:00:08;;;;;;;20.17;9.43;;;;;;;15.13;84.61;99373.98;4244132;82;21679;-85
2022/10/30 17:13:29;;;;;;;13.45;7.53;;;;;;;14.76;85.51;99379.70;4065440;85;21079;-85
2022/10/30 17:20:28;;;;;;;17.30;8.63;;;;;;;14.47;86.15;99387.75;4068548;85;21075;-85
2022/10/30 17:26:38;;;;;;;19.67;9.58;;;;;;;14.27;86.74;99384.55;3993213;87;21046;-85
2022/10/30 17:32:59;;;;;;;19.00;8.75;;;;;;;14.02;87.31;99387.20;4095403;84;21961;-85
2022/10/30 17:45:31;;;;;;;18.57;8.40;;;;;;;13.59;87.99;99388.79;4052058;85;21051;-85
2022/10/30 17:51:41;;;;;;;16.80;9.00;;;;;;;13.54;88.96;99394.65;4065334;85;21022;-85
2022/10/30 18:04:51;;;;;;;18.87;10.68;;;;;;;13.33;89.59;99392.55;4056091;84;21120;-87
2022/10/30 18:11:25;;;;;;;21.12;12.13;;;;;;;13.09;89.81;99392.40;4213109;82;21010;-86
2022/10/30 18:17:59;;;;;;;16.55;9.38;;;;;;;12.86;90.28;99393.17;4229571;82;20966;-86
2022/10/30 18:24:14;;;;;;;14.83;8.73;;;;;;;12.77;91.21;99392.69;4260240;82;21958;-86
2022/10/30 18:30:23;;;;;;;16.67;9.18;;;;;;;12.77;91.51;99389.94;4217813;82;21895;-85
2022/10/30 18:36:31;;;;;;;19.30;9.85;;;;;;;12.71;91.63;99391.45;4201028;84;20977;-85
2022/10/30 18:42:48;;;;;;;20.90;9.80;;;;;;;12.61;91.96;99381.95;4214624;83;21057;-86
2022/10/30 18:49:13;;;;;;;22.85;10.65;;;;;;;12.42;91.59;99380.21;4152516;85;21619;-86
2022/10/30 18:55:34;;;;;;;18.80;11.93;;;;;;;12.15;91.85;99382.86;4162967;84;21047;-86
2022/10/30 19:01:42;;;;;;;20.45;11.60;;;;;;;11.97;92.50;99381.89;4131726;84;21027;-85
2022/10/30 19:08:00;;;;;;;26.77;11.55;;;;;;;11.88;92.91;99385.52;4216360;83;21002;-85
2022/10/30 19:14:10;;;;;;;24.85;14.03;;;;;;;11.73;93.11;99391.97;4096053;85;21020;-85
2022/10/30 19:20:14;;;;;;;17.27;11.28;;;;;;;11.55;93.38;99392.30;4097153;85;20988;-86
2022/10/30 19:33:12;;;;;;;23.45;13.13;;;;;;;11.49;94.39;99392.99;4059391;85;21531;-85
2022/10/30 19:39:16;;;;;;;24.92;14.65;;;;;;;11.39;94.66;99401.28;4059946;85;21000;-85
2022/10/30 19:45:29;;;;;;;20.90;12.37;;;;;;;11.24;94.39;99402.24;4165352;85;21078;-85
2022/10/30 19:51:35;;;;;;;21.82;12.80;;;;;;;11.02;94.69;99397.00;4109652;85;21043;-85
2022/10/30 19:57:50;;;;;;;31.70;16.50;;;;;;;11.04;95.31;99398.00;4157655;84;20986;-85
2022/10/30 20:03:51;;;;;;;38.02;20.10;;;;;;;10.98;95.29;99395.36;4085703;85;21161;-85
2022/10/30 20:09:53;;;;;;;31.85;19.20;;;;;;;10.91;95.82;99397.44;4088382;84;21077;-85
2022/10/30 20:15:58;;;;;;;32.20;20.77;;;;;;;10.79;95.65;99394.10;4059903;85;21653;-86
2022/10/30 20:22:10;;;;;;;28.42;17.23;;;;;;;10.68;96.17;99404.09;4061773;85;21110;-85
2022/10/30 20:28:36;;;;;;;39.70;19.60;;;;;;;10.60;96.42;99404.52;4061822;85;21035;-85
2022/10/30 20:34:58;;;;;;;36.10;21.55;;;;;;;10.59;96.77;99400.20;4099606;85;20991;-85
2022/10/30 20:41:23;;;;;;;37.33;19.65;;;;;;;10.52;96.67;99404.17;4062236;85;20987;-85
2022/10/30 20:47:38;;;;;;;33.83;16.70;;;;;;;10.34;96.02;99409.13;4059158;85;21027;-86
2022/10/30 20:53:43;;;;;;;31.30;17.65;;;;;;;10.12;96.49;99420.81;4065594;84;21045;-85
2022/10/30 20:59:44;;;;;;;34.10;21.05;;;;;;;10.03;97.02;99413.38;4166079;85;20991;-85
2022/10/30 21:06:02;;;;;;;34.75;18.62;;;;;;;10.04;97.49;99414.39;4166605;83;21550;-86
2022/10/30 21:12:07;;;;;;;44.48;22.17;;;;;;;10.00;97.54;99414.11;4191369;83;21975;-85
2022/10/30 21:18:11;;;;;;;42.43;23.40;;;;;;;9.93;97.41;99424.92;4253721;82;21358;-85
2022/10/30 21:24:13;;;;;;;43.33;22.62;;;;;;;9.79;97.56;99416.42;4236150;82;21021;-85
2022/10/30 21:30:17;;;;;;;41.90;21.93;;;;;;;9.70;97.66;99415.81;4239011;82;21116;-85
2022/10/30 21:36:23;;;;;;;43.68;23.57;;;;;;;9.60;97.89;99415.80;4242085;82;20982;-85
2022/10/30 21:42:27;;;;;;;41.17;24.97;;;;;;;9.58;98.20;99418.69;4247419;82;20984;-85
2022/10/30 21:48:29;;;;;;;42.30;24.67;;;;;;;9.47;98.25;99413.78;4322079;82;21008;-85
2022/10/30 21:54:33;;;;;;;41.73;24.37;;;;;;;9.43;98.41;99413.48;4235050;82;20946;-85
2022/10/30 22:00:36;;;;;;;44.58;26.37;;;;;;;9.35;98.29;99413.11;4279785;82;21009;-85
2022/10/30 22:06:45;;;;;;;42.85;24.92;;;;;;;9.16;98.19;99414.45;4246746;82;20962;-85
2022/10/30 22:12:54;;;;;;;44.65;25.50;;;;;;;9.09;98.72;99413.70;4268127;82;21472;-85
2022/10/30 22:18:58;;;;;;;43.68;25.10;;;;;;;9.07;99.06;99409.16;4151772;85;21538;-85
2022/10/30 22:25:03;;;;;;;43.35;23.27;;;;;;;9.08;99.36;99407.23;4075664;85;21099;-85
2022/10/30 22:31:13;;;;;;;42.98;23.00;;;;;;;9.00;99.07;99417.77;4201677;82;21590;-85
2022/10/30 22:37:15;;;;;;;37.45;19.42;;;;;;;8.94;99.26;99417.82;4193563;82;20983;-85
2022/10/30 22:43:18;;;;;;;40.78;22.40;;;;;;;8.93;99.44;99423.05;4187652;82;20979;-85
2022/10/30 22:49:19;;;;;;;47.35;26.42;;;;;;;8.91;99.57;99425.36;4180937;82;21685;-85
2022/10/30 22:55:21;;;;;;;35.85;19.20;;;;;;;8.79;99.30;99413.94;4208886;82;20993;-85
2022/10/30 23:01:27;;;;;;;33.53;20.12;;;;;;;8.91;100.00;99408.38;4177518;82;21100;-85
2022/10/30 23:07:28;;;;;;;33.02;19.50;;;;;;;9.01;100.00;99410.59;4199574;82;21581;-85
2022/10/30 23:13:35;;;;;;;41.00;21.62;;;;;;;9.08;100.00;99412.70;4116404;82;21026;-85
2022/10/30 23:19:38;;;;;;;;;;;;;;;9.10;100.00;99413.11;4093922;84;21007;-84
2022/10/30 23:25:40;;;;;;;34.65;19.25;;;;;;;8.93;100.00;99412.13;4071163;85;20155;-85
2022/10/30 23:31:42;;;;;;;38.45;19.02;;;;;;;8.79;100.00;99412.58;4067791;85;21673;-85
2022/10/30 23:37:43;;;;;;;30.92;19.02;;;;;;;8.76;100.00;99420.67;4079306;85;21586;-85
2022/10/30 23:43:45;;;;;;;33.90;18.10;;;;;;;8.74;100.00;99416.16;4059302;85;21038;-85
2022/10/30 23:49:46;;;;;;;40.10;22.45;;;;;;;8.84;100.00;99419.14;4113032;85;22015;-84
2022/10/30 23:55:55;;;;;;;43.05;23.18;;;;;;;8.73;100.00;99407.17;4088251;85;21626;-85
